Time;durP1;ratioP1;P1;durP2;ratioP2;P2;SDS_P1;SDS_P2;PMS_P1;PMS_P2;Temp;Humidity;BMP_temperature;BMP_pressure;BME280_temperature;BME280_humidity;BME280_pressure;Samples;Min_cycle;Max_cycle;Signal;HPM_P1;HPM_P2
2023/04/26 00:00:47;;;;;;;7.93;5.77;;;;;;;6.70;100.00;153081.38;4913102;29;21222;-83
2023/04/26 00:03:15;;;;;;;7.70;5.90;;;;;;;6.69;100.00;153078.81;4898185;29;20454;-83
2023/04/26 00:05:42;;;;;;;5.30;4.67;;;;;;;6.64;100.00;153067.22;4895552;29;20486;-83
2023/04/26 00:08:09;;;;;;;9.53;6.17;;;;;;;6.62;100.00;153060.72;4891456;29;20818;-83
2023/04/26 00:10:35;;;;;;;8.43;6.10;;;;;;;6.60;100.00;153056.88;4890830;29;20786;-82
2023/04/26 00:13:02;;;;;;;6.40;5.70;;;;;;;6.57;100.00;153049.13;4893273;29;20453;-84
2023/04/26 00:15:29;;;;;;;7.70;5.87;;;;;;;6.58;100.00;153050.41;4894013;29;20441;-84
2023/04/26 00:17:55;;;;;;;8.13;6.03;;;;;;;6.60;100.00;153055.56;4893602;29;20510;-83
2023/04/26 00:20:23;;;;;;;7.70;5.70;;;;;;;6.60;100.00;153055.56;4875212;29;20444;-83
2023/04/26 00:22:50;;;;;;;10.00;6.10;;;;;;;6.56;100.00;153046.56;4877738;29;20482;-83
2023/04/26 00:25:17;;;;;;;9.63;6.23;;;;;;;6.51;100.00;153032.38;4879132;29;20759;-83
2023/04/26 00:27:43;;;;;;;6.23;5.30;;;;;;;6.52;100.00;153034.91;4890325;29;20464;-83
2023/04/26 00:30:11;;;;;;;5.87;5.17;;;;;;;6.50;100.00;153029.75;4882203;29;20462;-83
2023/04/26 00:32:37;;;;;;;7.80;5.00;;;;;;;6.47;100.00;153022.00;4897808;29;20454;-83
2023/04/26 00:35:06;;;;;;;7.80;6.23;;;;;;;6.41;100.00;153007.81;4899013;29;20446;-83
2023/04/26 00:37:34;;;;;;;7.87;5.30;;;;;;;6.39;100.00;153001.38;4881383;29;20466;-83
2023/04/26 00:40:01;;;;;;;7.20;6.50;;;;;;;6.41;100.00;153007.81;4898122;29;20446;-83
2023/04/26 00:42:28;;;;;;;7.20;5.63;;;;;;;6.34;100.00;152989.78;4898893;29;20534;-83
2023/04/26 00:44:56;;;;;;;7.80;5.73;;;;;;;6.33;100.00;152987.16;4899914;29;20484;-83
2023/04/26 00:47:23;;;;;;;9.17;6.13;;;;;;;6.32;100.00;152983.31;4897059;29;20458;-82
2023/04/26 00:49:50;;;;;;;8.00;6.20;;;;;;;6.25;100.00;152966.53;4882050;29;20816;-83
2023/04/26 00:52:16;;;;;;;6.33;5.60;;;;;;;6.25;100.00;152965.28;4881640;29;20907;-83
2023/04/26 00:54:44;;;;;;;7.47;5.50;;;;;;;6.26;100.00;152967.81;4895207;29;20497;-83
2023/04/26 00:57:12;;;;;;;7.70;5.97;;;;;;;6.28;100.00;152972.97;4894401;29;20458;-83
2023/04/26 00:59:39;;;;;;;7.13;5.27;;;;;;;6.23;100.00;152961.38;4882300;29;20537;-83
2023/04/26 01:02:05;;;;;;;6.47;5.50;;;;;;;6.19;100.00;152949.78;4897455;29;20446;-83
2023/04/26 01:04:45;;;;;;;5.80;4.50;;;;;;;6.13;100.00;152936.88;4897312;29;21329;-83
2023/04/26 01:07:11;;;;;;;10.13;6.07;;;;;;;6.14;100.00;152939.44;4878317;29;20978;-82
2023/04/26 01:09:38;;;;;;;10.50;4.60;;;;;;;6.12;100.00;152934.28;4879960;29;20444;-83
2023/04/26 01:12:07;;;;;;;6.70;5.50;;;;;;;6.11;100.00;152931.72;4878029;29;20454;-82
2023/04/26 01:14:35;;;;;;;7.10;4.77;;;;;;;6.03;100.00;152911.09;4878290;29;20462;-83
2023/04/26 01:17:02;;;;;;;5.73;4.90;;;;;;;6.06;100.00;152917.53;4892431;29;20458;-83
2023/04/26 01:19:29;;;;;;;6.50;5.77;;;;;;;6.10;100.00;152929.13;4897857;29;20468;-83
2023/04/26 01:21:55;;;;;;;6.27;5.07;;;;;;;6.09;100.00;152926.53;4896297;29;20473;-82
2023/04/26 01:24:23;;;;;;;5.83;4.93;;;;;;;6.07;100.00;152921.38;4881190;29;20474;-83
2023/04/26 01:26:50;;;;;;;8.60;5.13;;;;;;;6.09;100.00;152926.53;4897166;29;20483;-82
2023/04/26 01:29:18;;;;;;;7.50;5.60;;;;;;;6.02;100.00;152907.19;4898241;29;20469;-83
2023/04/26 01:31:45;;;;;;;7.17;5.60;;;;;;;6.00;100.00;152903.34;4896511;29;20506;-82
2023/04/26 01:34:11;;;;;;;6.60;5.90;;;;;;;5.97;100.00;152895.59;4896077;29;20462;-83
2023/04/26 01:36:38;;;;;;;9.70;5.70;;;;;;;6.01;98.13;152905.88;4880263;29;20530;-82
2023/04/26 01:39:04;;;;;;;7.83;5.20;;;;;;;6.02;98.75;152908.50;4877623;29;20463;-82
2023/04/26 01:41:32;;;;;;;8.00;5.17;;;;;;;6.01;100.00;152904.66;4878909;29;20479;-83
2023/04/26 01:44:00;;;;;;;5.90;4.93;;;;;;;5.98;100.00;152896.91;4888417;29;20518;-82
2023/04/26 01:46:26;;;;;;;10.30;5.63;;;;;;;5.97;98.34;152895.59;4905977;29;20489;-83
2023/04/26 01:48:53;;;;;;;7.37;5.30;;;;;;;5.96;99.49;152891.69;4915397;29;20510;-83
2023/04/26 01:51:20;;;;;;;9.40;5.70;;;;;;;5.92;100.00;152881.41;4897858;29;20496;-82
2023/04/26 01:53:47;;;;;;;6.93;5.33;;;;;;;5.87;99.36;152869.81;4879322;29;21028;-82
2023/04/26 01:56:13;;;;;;;6.03;5.43;;;;;;;5.82;98.88;152856.88;4898993;29;20499;-82
2023/04/26 01:58:41;;;;;;;9.20;5.37;;;;;;;5.75;99.22;152838.78;4894725;29;20475;-82
2023/04/26 02:01:10;;;;;;;7.40;5.60;;;;;;;5.76;100.00;152841.38;4891639;29;20459;-83
2023/04/26 02:03:37;;;;;;;11.87;6.03;;;;;;;5.68;99.94;152820.75;4881186;29;20846;-82
2023/04/26 02:06:04;;;;;;;6.77;5.70;;;;;;;5.61;98.89;152801.41;4895353;29;20494;-82
2023/04/26 02:08:30;;;;;;;7.27;5.77;;;;;;;5.64;99.24;152809.16;4895384;29;20970;-83
2023/04/26 02:10:57;;;;;;;6.23;4.60;;;;;;;5.57;99.78;152791.06;4878728;29;20469;-83
2023/04/26 02:13:24;;;;;;;8.20;5.30;;;;;;;5.53;99.50;152782.06;4879642;29;20458;-83
2023/04/26 02:15:52;;;;;;;8.80;5.10;;;;;;;5.52;98.86;152779.47;4894729;29;20522;-83
2023/04/26 02:18:20;;;;;;;8.13;5.00;;;;;;;5.60;96.00;152800.09;4892858;29;20471;-82
2023/04/26 02:20:47;;;;;;;8.07;5.33;;;;;;;5.66;94.51;152815.59;4900864;29;21263;-83
2023/04/26 02:23:13;;;;;;;7.40;5.33;;;;;;;5.69;94.97;152823.34;4878243;29;20876;-82
2023/04/26 02:25:45;;;;;;;6.40;4.53;;;;;;;5.62;95.15;152803.97;4896656;29;20990;-83
2023/04/26 02:28:12;;;;;;;8.33;4.93;;;;;;;5.62;95.00;152803.97;4895234;29;20478;-82
2023/04/26 02:30:38;;;;;;;6.77;5.20;;;;;;;5.65;93.53;152813.00;4896873;29;20446;-82
2023/04/26 02:33:07;;;;;;;6.03;5.43;;;;;;;5.64;94.20;152809.16;4879021;29;20458;-82
2023/04/26 02:35:34;;;;;;;8.60;5.57;;;;;;;5.61;96.24;152802.72;4900286;29;20454;-83
2023/04/26 02:38:00;;;;;;;7.60;4.90;;;;;;;5.56;97.18;152789.75;4879789;29;20462;-84
2023/04/26 02:40:27;;;;;;;5.27;4.70;;;;;;;5.49;96.93;152771.72;4895174;29;20461;-83
2023/04/26 02:42:55;;;;;;;6.33;5.60;;;;;;;5.49;97.74;152773.03;4893367;29;20435;-84
2023/04/26 02:45:22;;;;;;;6.80;5.53;;;;;;;5.54;99.70;152784.63;4879010;29;20482;-84
2023/04/26 02:47:48;;;;;;;7.10;5.00;;;;;;;5.48;100.00;152769.19;4894250;29;20553;-84
2023/04/26 02:50:16;;;;;;;7.33;5.13;;;;;;;5.30;100.00;152724.03;4879727;29;20447;-83
2023/04/26 02:52:43;;;;;;;7.17;4.87;;;;;;;5.22;100.00;152702.09;4878571;29;20501;-83
2023/04/26 02:55:10;;;;;;;8.17;5.77;;;;;;;5.07;100.00;152663.44;4879337;29;20552;-84
2023/04/26 02:57:36;;;;;;;9.83;5.33;;;;;;;5.01;100.00;152647.97;4879643;29;20488;-83
2023/04/26 03:00:07;;;;;;;7.53;5.63;;;;;;;4.99;100.00;152642.81;4881840;29;20446;-83
2023/04/26 03:02:35;;;;;;;11.27;6.23;;;;;;;4.96;100.00;152636.38;4883884;29;20454;-83
2023/04/26 03:05:02;;;;;;;12.50;6.50;;;;;;;4.93;100.00;152628.63;4881708;29;20469;-83
2023/04/26 03:07:31;;;;;;;7.70;6.80;;;;;;;4.91;100.00;152624.78;4878758;29;20461;-83
2023/04/26 03:09:59;;;;;;;9.43;6.97;;;;;;;4.95;100.00;152632.53;4878510;29;20494;-83
2023/04/26 03:12:26;;;;;;;9.70;6.63;;;;;;;5.00;100.00;152645.41;4894337;29;20541;-83
2023/04/26 03:14:52;;;;;;;9.33;7.17;;;;;;;5.00;100.00;152646.72;4894557;29;20546;-83
2023/04/26 03:17:19;;;;;;;8.03;6.67;;;;;;;4.97;100.00;152638.97;4878844;29;20571;-83
2023/04/26 03:19:45;;;;;;;14.27;6.30;;;;;;;4.96;100.00;152635.06;4878375;29;20531;-83
2023/04/26 03:22:15;;;;;;;8.53;6.50;;;;;;;4.93;100.00;152628.63;4882358;29;20461;-83
2023/04/26 03:24:44;;;;;;;12.30;7.60;;;;;;;4.89;100.00;152619.66;4913092;29;20965;-83
2023/04/26 03:27:11;;;;;;;7.37;6.17;;;;;;;4.82;100.00;152601.56;4902833;29;20486;-83
2023/04/26 03:29:38;;;;;;;8.57;7.70;;;;;;;4.80;100.00;152596.44;4881159;29;20451;-83
2023/04/26 03:32:06;;;;;;;11.03;7.60;;;;;;;4.79;100.00;152593.84;4894856;29;20466;-83
2023/04/26 03:34:33;;;;;;;10.50;7.57;;;;;;;4.79;100.00;152593.84;4894241;29;20446;-82
2023/04/26 03:36:59;;;;;;;9.17;7.37;;;;;;;4.77;100.00;152588.69;4878339;29;20799;-82
2023/04/26 03:39:26;;;;;;;11.43;8.43;;;;;;;4.73;100.00;152578.41;4893636;29;20458;-82
2023/04/26 03:41:54;;;;;;;10.80;8.50;;;;;;;4.76;100.00;152586.16;4893692;29;20478;-82
2023/04/26 03:44:20;;;;;;;11.17;8.60;;;;;;;4.74;100.00;152580.97;4875153;29;20459;-83
2023/04/26 03:46:47;;;;;;;12.37;8.43;;;;;;;4.69;100.00;152568.06;4871098;29;20527;-82
2023/04/26 03:49:14;;;;;;;10.43;8.07;;;;;;;4.65;100.00;152557.78;4878465;29;20458;-82
2023/04/26 03:51:41;;;;;;;11.33;8.77;;;;;;;4.73;100.00;152578.41;4877838;29;20510;-83
2023/04/26 03:54:07;;;;;;;12.27;9.70;;;;;;;4.78;100.00;152591.28;4894028;29;20462;-83
2023/04/26 03:56:35;;;;;;;10.50;8.27;;;;;;;4.78;100.00;152591.28;4878094;29;20459;-82
2023/04/26 03:59:03;;;;;;;12.60;9.23;;;;;;;4.73;100.00;152578.41;4877717;29;21044;-82
2023/04/26 04:01:30;;;;;;;10.67;8.70;;;;;;;4.69;100.00;152566.78;4892673;29;20473;-83
2023/04/26 04:03:57;;;;;;;12.33;9.63;;;;;;;4.78;100.00;152591.28;4892740;29;21042;-82
2023/04/26 04:06:23;;;;;;;10.03;8.10;;;;;;;4.83;100.00;152604.16;4893861;29;20505;-82
2023/04/26 04:08:50;;;;;;;18.07;9.90;;;;;;;4.72;100.00;152575.81;4875804;29;20488;-82
2023/04/26 04:11:16;;;;;;;12.07;10.10;;;;;;;4.53;100.00;152526.84;4891915;29;20470;-83
2023/04/26 04:13:43;;;;;;;14.20;10.43;;;;;;;4.45;100.00;152506.22;4878425;29;20443;-83
2023/04/26 04:16:11;;;;;;;14.87;10.27;;;;;;;4.40;100.00;152493.34;4878239;29;21060;-83
2023/04/26 04:18:38;;;;;;;13.87;10.73;;;;;;;4.36;100.00;152483.06;4887194;29;20459;-83
2023/04/26 04:21:05;;;;;;;12.53;10.53;;;;;;;4.35;100.00;152479.19;4892497;29;20466;-83
2023/04/26 04:23:32;;;;;;;11.77;9.23;;;;;;;4.28;100.00;152463.75;4878476;29;21037;-82
2023/04/26 04:26:00;;;;;;;14.20;11.60;;;;;;;4.36;100.00;152483.06;4878302;29;20491;-82
2023/04/26 04:28:28;;;;;;;15.07;11.03;;;;;;;4.41;100.00;152495.94;4899875;29;20460;-82
2023/04/26 04:30:55;;;;;;;19.37;11.30;;;;;;;4.38;100.00;152486.91;4890713;29;20466;-83
2023/04/26 04:33:24;;;;;;;17.40;11.10;;;;;;;4.38;100.00;152488.22;4897319;29;20561;-83
2023/04/26 04:35:51;;;;;;;16.53;11.43;;;;;;;4.28;100.00;152463.75;4894049;29;20459;-82
2023/04/26 04:38:17;;;;;;;15.30;11.20;;;;;;;4.25;100.00;152456.03;4864926;29;20475;-82
2023/04/26 04:40:44;;;;;;;14.40;11.17;;;;;;;4.23;100.00;152450.88;4902696;29;20822;-81
2023/04/26 04:43:11;;;;;;;13.70;10.67;;;;;;;4.21;100.00;152444.41;4895490;29;20574;-80
2023/04/26 04:45:37;;;;;;;15.13;11.50;;;;;;;4.23;100.00;152449.59;4877891;29;20450;-82
2023/04/26 04:48:04;;;;;;;15.03;10.50;;;;;;;4.23;100.00;152449.59;4878279;29;20486;-81
2023/04/26 04:50:33;;;;;;;13.47;9.73;;;;;;;4.23;100.00;152449.59;4895342;29;20445;-81
2023/04/26 04:52:59;;;;;;;15.53;11.77;;;;;;;4.25;100.00;152454.72;4892986;29;20458;-82
2023/04/26 04:55:26;;;;;;;17.00;12.47;;;;;;;4.27;100.00;152459.88;4888680;29;20462;-81
2023/04/26 04:57:53;;;;;;;16.23;11.97;;;;;;;4.36;100.00;152483.06;4891837;29;20456;-82
2023/04/26 05:00:20;;;;;;;14.03;11.10;;;;;;;4.43;100.00;152501.09;4885311;29;20609;-82
2023/04/26 05:02:52;;;;;;;18.23;13.07;;;;;;;4.48;100.00;152513.97;4878930;29;20514;-82
2023/04/26 05:05:19;;;;;;;17.83;11.97;;;;;;;4.56;100.00;152534.59;4888892;29;20473;-82
2023/04/26 05:07:48;;;;;;;15.90;12.10;;;;;;;4.66;100.00;152559.09;4871906;29;21061;-82
2023/04/26 05:10:16;;;;;;;18.83;12.23;;;;;;;4.77;100.00;152587.41;4884582;29;20455;-82
2023/04/26 05:12:42;;;;;;;17.90;13.13;;;;;;;4.85;100.00;152609.31;4892330;29;20500;-82
2023/04/26 05:15:09;;;;;;;18.90;12.73;;;;;;;5.03;100.00;152653.16;4869949;29;20473;-81
2023/04/26 05:17:36;;;;;;;17.03;13.10;;;;;;;5.20;100.00;152698.25;4884996;29;20576;-82
2023/04/26 05:20:15;;;;;;;20.37;14.67;;;;;;;5.46;100.00;152765.28;4893326;29;20549;-82
2023/04/26 05:22:42;;;;;;;16.33;12.70;;;;;;;5.63;100.00;152807.84;4905236;29;20465;-82
2023/04/26 05:25:12;;;;;;;16.37;12.60;;;;;;;5.68;100.00;152820.75;4895501;29;20465;-82
2023/04/26 05:27:39;;;;;;;16.47;12.20;;;;;;;5.77;100.00;152843.94;4879455;29;21056;-82
2023/04/26 05:30:16;;;;;;;13.73;10.83;;;;;;;5.86;100.00;152867.22;4892393;29;20868;-82
2023/04/26 05:32:49;;;;;;;14.27;11.30;;;;;;;5.88;100.00;152872.34;4876748;29;20466;-82
2023/04/26 05:35:40;;;;;;;13.90;11.37;;;;;;;5.97;100.00;152895.59;4883571;29;20799;-83
2023/04/26 05:38:07;;;;;;;13.47;11.83;;;;;;;6.08;100.00;152923.97;4878145;29;20564;-83
2023/04/26 05:40:36;;;;;;;15.27;11.30;;;;;;;6.17;100.00;152944.63;4892653;29;20466;-82
2023/04/26 05:43:03;;;;;;;15.80;12.10;;;;;;;6.36;100.00;152994.91;4891214;29;20468;-83
2023/04/26 05:45:30;;;;;;;14.70;10.60;;;;;;;6.51;100.00;153033.63;4879694;29;20489;-82
2023/04/26 05:47:58;;;;;;;14.10;11.17;;;;;;;6.72;100.00;153086.56;4892430;29;20496;-82
2023/04/26 05:50:25;;;;;;;15.23;12.07;;;;;;;6.95;100.00;153145.94;4895398;29;20538;-82
2023/04/26 05:52:51;;;;;;;17.20;12.63;;;;;;;7.21;100.00;153213.06;4893934;29;20886;-83
2023/04/26 05:55:20;;;;;;;13.83;10.73;;;;;;;7.41;100.00;153262.16;4877483;29;20642;-83
2023/04/26 05:57:48;;;;;;;12.50;11.13;;;;;;;7.55;100.00;153298.28;4891221;29;20478;-83
2023/04/26 06:00:15;;;;;;;13.60;10.93;;;;;;;7.81;100.00;153366.75;4885348;29;20455;-82
2023/04/26 06:02:45;;;;;;;14.30;11.07;;;;;;;7.97;98.42;153406.78;4872673;29;20859;-82
2023/04/26 06:05:15;;;;;;;13.10;9.47;;;;;;;8.16;97.95;153455.91;4887088;29;20454;-82
2023/04/26 06:07:43;;;;;;;12.70;11.17;;;;;;;8.31;97.17;153494.72;4876068;29;20481;-83
2023/04/26 06:10:11;;;;;;;12.53;10.20;;;;;;;8.40;94.11;153518.00;4889254;29;20828;-83
2023/04/26 06:12:38;;;;;;;12.63;9.10;;;;;;;8.28;91.86;153485.69;4886367;29;21001;-83
2023/04/26 06:15:08;;;;;;;10.30;8.63;;;;;;;8.18;91.93;153459.81;4894495;29;20873;-83
2023/04/26 06:17:37;;;;;;;11.07;9.43;;;;;;;8.19;93.25;153462.38;4888633;29;20460;-82
2023/04/26 06:20:05;;;;;;;12.37;10.80;;;;;;;8.25;94.39;153479.19;4874921;29;20546;-82
2023/04/26 06:22:31;;;;;;;11.00;9.27;;;;;;;8.48;94.84;153537.38;4892876;29;20458;-82
2023/04/26 06:24:58;;;;;;;16.80;9.70;;;;;;;8.82;93.62;153623.97;4907123;29;20961;-82
2023/04/26 06:27:26;;;;;;;10.20;9.07;;;;;;;9.18;90.68;153717.13;4900935;29;20505;-82
2023/04/26 06:29:53;;;;;;;11.00;9.10;;;;;;;9.32;88.25;153753.31;4888829;29;20469;-82
2023/04/26 06:32:22;;;;;;;10.67;8.57;;;;;;;9.14;83.93;153708.03;4892822;29;20533;-83
2023/04/26 06:34:48;;;;;;;12.73;9.30;;;;;;;9.02;86.45;153675.72;4867278;29;20546;-82
2023/04/26 06:37:15;;;;;;;11.03;9.83;;;;;;;9.18;85.17;153717.13;4875117;29;20467;-82
2023/04/26 06:39:43;;;;;;;10.33;7.80;;;;;;;9.28;84.30;153741.69;4868415;29;20462;-82
2023/04/26 06:42:11;;;;;;;12.10;9.17;;;;;;;9.57;81.75;153818.00;4874646;29;20458;-82
2023/04/26 06:45:01;;;;;;;13.37;7.80;;;;;;;9.65;82.63;153837.41;4892584;29;20469;-82
2023/04/26 06:47:29;;;;;;;7.90;6.60;;;;;;;9.52;76.89;153805.06;4888896;29;20486;-82
2023/04/26 06:49:55;;;;;;;9.87;7.60;;;;;;;9.38;77.01;153768.84;4889648;29;20465;-85
2023/04/26 06:52:22;;;;;;;8.30;6.40;;;;;;;9.24;77.33;153731.34;4885118;29;20494;-83
2023/04/26 06:58:16;;;;;;;8.20;5.87;;;;;;;9.32;74.45;153752.03;4870822;29;20505;-82
2023/04/26 07:00:42;;;;;;;9.50;6.40;;;;;;;9.37;75.52;153764.97;4880079;29;20451;-82
2023/04/26 07:03:10;;;;;;;6.27;4.60;;;;;;;9.43;74.12;153781.75;4878392;29;20827;-82
2023/04/26 07:05:37;;;;;;;9.23;4.90;;;;;;;9.48;69.38;153794.69;4882247;29;20810;-82
2023/04/26 07:08:03;;;;;;;7.13;5.70;;;;;;;9.67;72.05;153843.88;4880072;29;20848;-82
2023/04/26 07:10:30;;;;;;;6.80;6.03;;;;;;;9.73;69.13;153858.09;4864690;29;20983;-83
2023/04/26 07:12:56;;;;;;;9.40;5.30;;;;;;;9.76;67.98;153867.19;4882860;29;20463;-83
2023/04/26 07:15:23;;;;;;;6.93;5.70;;;;;;;10.17;70.22;153970.72;4882752;29;20462;-83
2023/04/26 07:17:49;;;;;;;9.37;6.77;;;;;;;10.21;69.28;153982.41;4886930;29;20471;-82
2023/04/26 07:20:19;;;;;;;9.00;7.00;;;;;;;10.17;70.46;153970.72;4867573;29;20460;-83
2023/04/26 07:22:46;;;;;;;8.67;6.97;;;;;;;10.41;71.24;154032.88;4881440;29;20475;-83
2023/04/26 07:25:12;;;;;;;10.50;6.60;;;;;;;10.79;71.03;154130.00;4881016;29;20500;-83
2023/04/26 07:27:39;;;;;;;8.90;6.03;;;;;;;10.72;66.76;154113.13;4880992;29;20488;-82
2023/04/26 07:30:07;;;;;;;7.00;6.03;;;;;;;10.94;66.71;154170.13;4885808;29;20464;-83
2023/04/26 07:32:33;;;;;;;8.60;5.30;;;;;;;10.86;61.26;154149.41;4880050;29;20510;-83
2023/04/26 07:35:00;;;;;;;6.87;6.13;;;;;;;10.93;67.77;154166.28;4882861;29;20453;-83
2023/04/26 07:37:28;;;;;;;7.30;5.63;;;;;;;11.16;68.17;154225.84;4878947;29;20473;-83
2023/04/26 07:39:54;;;;;;;7.93;5.43;;;;;;;11.11;63.19;154211.59;4879766;29;20473;-85
2023/04/26 07:42:21;;;;;;;10.50;5.60;;;;;;;11.01;63.17;154188.25;4882819;29;20460;-84
2023/04/26 07:44:48;;;;;;;6.67;5.97;;;;;;;11.34;65.11;154271.16;4881630;29;20469;-85
2023/04/26 07:47:14;;;;;;;8.50;6.30;;;;;;;11.47;64.32;154304.84;4880689;29;20485;-85
2023/04/26 07:49:41;;;;;;;7.67;5.80;;;;;;;11.44;63.01;154297.06;4882850;29;20468;-84
2023/04/26 07:52:08;;;;;;;11.63;6.57;;;;;;;11.15;63.58;154221.94;4882108;29;20528;-85
2023/04/26 07:54:36;;;;;;;6.90;5.37;;;;;;;10.83;66.09;154141.63;4881892;29;20512;-83
2023/04/26 07:57:03;;;;;;;8.17;6.60;;;;;;;10.50;63.76;154054.88;4884655;29;20456;-83
2023/04/26 07:59:29;;;;;;;7.80;6.47;;;;;;;10.23;65.08;153986.28;4883542;29;20462;-84
2023/04/26 08:01:56;;;;;;;7.40;6.20;;;;;;;10.02;65.69;153931.88;4880600;29;20466;-83
2023/04/26 08:04:32;;;;;;;7.73;6.07;;;;;;;9.73;66.88;153858.09;4882473;29;20489;-85
2023/04/26 08:07:00;;;;;;;12.37;7.33;;;;;;;9.71;68.19;153854.25;4882843;29;20487;-83
2023/04/26 08:09:27;;;;;;;9.30;6.97;;;;;;;9.87;67.88;153893.06;4881873;29;20538;-82
2023/04/26 08:11:55;;;;;;;8.87;7.00;;;;;;;10.04;67.14;153937.03;4882296;29;20471;-83
2023/04/26 08:14:21;;;;;;;8.33;6.40;;;;;;;10.13;67.13;153961.69;4884979;29;20818;-84
2023/04/26 08:16:48;;;;;;;7.77;6.93;;;;;;;10.23;69.36;153986.28;4867564;29;20471;-84
2023/04/26 08:19:14;;;;;;;9.90;7.77;;;;;;;10.55;68.46;154067.84;4881599;29;20473;-84
2023/04/26 08:21:41;;;;;;;14.30;8.03;;;;;;;10.69;66.36;154105.41;4882561;29;20454;-83
2023/04/26 08:24:07;;;;;;;14.00;7.03;;;;;;;10.98;69.57;154179.22;4883979;29;20471;-84
2023/04/26 08:26:34;;;;;;;6.83;5.90;;;;;;;11.17;64.04;154227.16;4887611;29;20465;-84
2023/04/26 08:29:02;;;;;;;7.50;6.63;;;;;;;10.91;64.31;154161.06;4883318;29;20557;-84
2023/04/26 08:31:29;;;;;;;11.40;6.83;;;;;;;10.75;64.08;154120.91;4882136;29;20465;-84
2023/04/26 08:33:55;;;;;;;12.03;6.40;;;;;;;10.48;65.10;154051.03;4886820;29;20460;-83
2023/04/26 08:36:22;;;;;;;7.20;6.40;;;;;;;10.32;65.62;154010.91;4885991;29;20522;-83
2023/04/26 08:38:48;;;;;;;9.50;6.30;;;;;;;10.04;64.74;153937.03;4881594;29;20510;-83
2023/04/26 08:41:21;;;;;;;10.60;7.30;;;;;;;9.98;67.95;153921.53;4881786;29;20463;-83
2023/04/26 08:43:48;;;;;;;8.80;6.30;;;;;;;10.00;66.57;153926.69;4883626;29;20523;-83
2023/04/26 08:46:19;;;;;;;9.27;6.50;;;;;;;9.91;65.34;153903.38;4887391;29;20539;-84
2023/04/26 08:48:49;;;;;;;8.73;6.40;;;;;;;9.84;66.81;153886.59;4884641;29;20491;-84
2023/04/26 08:51:17;;;;;;;9.43;6.43;;;;;;;9.73;66.52;153858.09;4884886;29;20484;-84
2023/04/26 08:53:43;;;;;;;10.40;5.77;;;;;;;9.61;66.58;153827.06;4887496;29;20465;-84
2023/04/26 08:56:10;;;;;;;6.57;5.80;;;;;;;9.52;66.68;153805.06;4883923;29;20469;-83
2023/04/26 08:58:37;;;;;;;6.50;5.50;;;;;;;9.48;68.84;153793.41;4889475;29;20603;-83
2023/04/26 09:01:05;;;;;;;7.17;5.23;;;;;;;9.52;73.42;153803.78;4902288;29;20460;-85
2023/04/26 09:03:33;;;;;;;11.10;6.67;;;;;;;9.58;69.01;153820.56;4882303;29;20471;-84
2023/04/26 09:06:00;;;;;;;6.63;5.93;;;;;;;9.76;77.72;153867.19;4883951;29;20461;-84
2023/04/26 09:08:27;;;;;;;7.30;5.40;;;;;;;9.86;76.92;153890.44;4883984;29;20854;-83
2023/04/26 09:10:53;;;;;;;7.63;6.27;;;;;;;10.09;81.60;153949.97;4883331;29;20517;-84
2023/04/26 09:13:20;;;;;;;10.90;6.33;;;;;;;10.07;70.92;153944.81;4884856;29;20532;-84
2023/04/26 09:15:48;;;;;;;7.60;5.53;;;;;;;9.99;67.08;153924.09;4884459;29;20911;-83
2023/04/26 09:18:18;;;;;;;11.33;6.17;;;;;;;10.10;66.46;153952.56;4884386;29;20610;-84
2023/04/26 09:21:02;;;;;;;7.40;6.27;;;;;;;10.13;64.65;153961.69;4884231;29;20953;-84
2023/04/26 09:23:28;;;;;;;7.63;5.17;;;;;;;10.05;64.37;153939.63;4883289;29;20466;-84
2023/04/26 09:25:55;;;;;;;8.40;6.57;;;;;;;9.93;64.98;153908.59;4884265;29;20820;-84
2023/04/26 09:28:23;;;;;;;9.03;5.90;;;;;;;9.93;65.45;153908.59;4885654;29;20489;-84
2023/04/26 09:30:49;;;;;;;6.40;5.80;;;;;;;9.77;64.42;153869.75;4884980;29;20493;-83
2023/04/26 09:33:16;;;;;;;8.30;5.90;;;;;;;9.64;65.87;153836.09;4886797;29;20463;-83
2023/04/26 09:35:43;;;;;;;7.37;5.93;;;;;;;9.71;64.59;153854.25;4883731;29;20488;-84
2023/04/26 09:38:13;;;;;;;6.50;5.50;;;;;;;9.88;65.38;153896.91;4897798;29;20463;-84
2023/04/26 09:40:41;;;;;;;6.43;5.73;;;;;;;10.04;67.04;153937.03;4887483;29;20458;-84
2023/04/26 09:43:08;;;;;;;6.03;5.03;;;;;;;10.19;65.44;153977.19;4884604;29;21019;-84
2023/04/26 09:45:44;;;;;;;7.23;5.93;;;;;;;10.28;64.70;153999.22;4886031;29;20459;-84
2023/04/26 09:48:16;;;;;;;7.03;6.27;;;;;;;10.35;64.73;154017.38;4884142;29;21009;-84
2023/04/26 09:50:44;;;;;;;7.60;5.77;;;;;;;10.32;62.82;154010.91;4884742;29;20986;-83
2023/04/26 09:53:12;;;;;;;6.60;5.40;;;;;;;10.22;63.46;153983.66;4883991;29;20536;-84
2023/04/26 09:55:39;;;;;;;7.07;5.73;;;;;;;10.13;63.15;153961.69;4881181;29;20472;-83
2023/04/26 09:58:09;;;;;;;6.23;5.20;;;;;;;10.03;64.74;153935.78;4883101;29;20465;-83
2023/04/26 10:00:38;;;;;;;10.50;6.17;;;;;;;10.12;63.68;153957.72;4887645;29;20459;-83
2023/04/26 10:03:06;;;;;;;6.80;5.27;;;;;;;10.04;63.44;153937.03;4885867;29;20468;-83
2023/04/26 10:05:33;;;;;;;9.67;6.33;;;;;;;9.79;63.91;153874.91;4873403;29;20623;-83
2023/04/26 10:07:59;;;;;;;7.10;5.33;;;;;;;9.91;62.33;153903.38;4870061;29;20863;-83
2023/04/26 10:10:27;;;;;;;8.20;5.20;;;;;;;9.98;62.37;153922.78;4868896;29;20462;-84
2023/04/26 10:12:54;;;;;;;8.00;5.20;;;;;;;9.95;63.20;153915.06;4885952;29;20528;-84
2023/04/26 10:15:20;;;;;;;8.10;5.50;;;;;;;10.04;64.04;153937.03;4882942;29;20459;-84
2023/04/26 10:17:47;;;;;;;6.10;5.50;;;;;;;10.16;61.95;153969.47;4884102;29;20467;-84
2023/04/26 10:20:14;;;;;;;8.13;5.03;;;;;;;10.22;63.20;153984.97;4887458;29;20572;-82
2023/04/26 10:22:45;;;;;;;5.30;4.80;;;;;;;10.37;64.23;154022.53;4884450;29;20485;-84
2023/04/26 10:25:12;;;;;;;6.20;5.60;;;;;;;10.49;65.93;154053.59;4874762;29;20481;-84
2023/04/26 10:27:52;;;;;;;10.10;6.00;;;;;;;10.58;72.89;154075.59;4886621;29;20938;-84
2023/04/26 10:30:20;;;;;;;8.50;5.97;;;;;;;10.62;65.89;154085.94;4881242;29;20457;-84
2023/04/26 10:33:15;;;;;;;7.40;5.73;;;;;;;10.59;61.97;154078.22;4882110;29;20475;-84
2023/04/26 10:36:00;;;;;;;6.13;5.37;;;;;;;10.51;63.22;154057.50;4882804;29;20489;-85
2023/04/26 10:38:26;;;;;;;9.37;5.40;;;;;;;10.51;62.41;154058.75;4887730;29;20535;-83
2023/04/26 10:40:53;;;;;;;6.83;5.83;;;;;;;10.55;64.45;154067.84;4883127;29;20459;-83
2023/04/26 10:43:31;;;;;;;7.90;5.63;;;;;;;10.62;63.71;154087.25;4881448;29;20550;-84
2023/04/26 10:46:32;;;;;;;5.73;5.13;;;;;;;10.59;61.37;154079.47;4884323;29;20460;-85
2023/04/26 10:48:59;;;;;;;6.03;4.93;;;;;;;10.47;63.40;154048.41;4882781;29;20551;-84
2023/04/26 10:51:26;;;;;;;6.50;5.10;;;;;;;10.42;64.07;154035.47;4880476;29;20504;-84
2023/04/26 10:54:00;;;;;;;7.93;6.53;;;;;;;10.63;72.70;154088.56;4883470;29;20473;-85
2023/04/26 10:56:52;;;;;;;9.30;6.03;;;;;;;10.74;71.58;154117.03;4882596;29;20472;-84
2023/04/26 10:59:24;;;;;;;5.40;4.80;;;;;;;10.83;67.03;154141.63;4882945;29;20803;-84
2023/04/26 11:01:52;;;;;;;6.53;5.10;;;;;;;10.93;62.32;154167.53;4888179;29;20557;-84
2023/04/26 11:04:19;;;;;;;7.73;5.43;;;;;;;10.94;59.77;154168.81;4881785;29;20836;-84
2023/04/26 11:06:50;;;;;;;7.03;5.50;;;;;;;10.74;59.35;154117.03;4865410;29;20903;-84
2023/04/26 11:09:36;;;;;;;8.50;5.97;;;;;;;10.48;59.79;154051.03;4882914;29;20611;-84
2023/04/26 11:12:08;;;;;;;7.07;5.40;;;;;;;10.43;61.31;154036.78;4883422;29;20466;-84
2023/04/26 11:14:36;;;;;;;6.13;4.80;;;;;;;10.57;63.03;154074.31;4884274;29;20473;-84
2023/04/26 11:17:04;;;;;;;8.53;6.07;;;;;;;10.71;60.38;154110.56;4898104;29;21186;-84
2023/04/26 11:19:31;;;;;;;6.67;5.97;;;;;;;10.74;59.76;154118.34;4881696;29;20461;-84
2023/04/26 11:21:58;;;;;;;6.13;5.53;;;;;;;10.73;59.40;154115.75;4881417;29;21952;-84
2023/04/26 11:24:25;;;;;;;8.13;5.37;;;;;;;10.90;59.38;154159.78;4896300;29;21023;-84
2023/04/26 11:26:52;;;;;;;5.50;4.67;;;;;;;11.01;61.37;154188.25;4885577;29;20552;-84
2023/04/26 11:29:19;;;;;;;5.40;4.53;;;;;;;11.14;59.91;154219.38;4882155;29;20859;-85
2023/04/26 11:31:52;;;;;;;6.90;5.37;;;;;;;11.21;58.97;154238.78;4883338;29;20479;-85